Ventnor City, NJ (08406)

10:27 PM EST on November 23, 2017 (GMT -0500)
Ventnor Gardens | | Change Station

Elev 13 ft 39.34 °N, 74.49 °W | Updated 12 seconds ago

Clear
Clear
32.6 °F
Feels Like 33 °F
N
0.0
Wind Variable Wind from NW

Today
High -- | Low -- °F
--% Chance of Precip.
Yesterday
High -- | Low -- °F
Precip. -- in
Pressure 30.07 in
Visibility 10.0 miles
Clouds Clear
Windchill 33 °F
Dew Point 24 °F
Humidity 71%
Rainfall 0.00 in
Snow Depth Not available.
6:50 AM 4:37 PM
Waxing Crescent, 26% visible
METAR KACY 240254Z 00000KT 10SM CLR M01/M05 A3007 RMK AO2 SLP183 T10111050 53005
Pressure 30.07 in
Visibility 10.0 miles
Clouds Clear
Windchill 33 °F
Dew Point 24 °F
Humidity 71%
Rainfall 0.00 in
Snow Depth Not available.
6:50 AM 4:37 PM
Waxing Crescent, 26% visible
METAR KACY 240254Z 00000KT 10SM CLR M01/M05 A3007 RMK AO2 SLP183 T10111050 53005

Get Severe Weather Alerts

Thanks for signing up!

Be on the lookout for a verification email in your inbox.

You'll start receiving the daily forecast at 6 AM.

×

10-Day Weather Forecast

Almanac

Astronomy

Nov. 23, 2017 Rise Set
Actual Time
Civil Twilight
Nautical Twilight
Astronomical Twilight
Moon
Length of Visible Light
Length of Day
Tomorrow will be .
, % of the Moon is Illuminated

Today's Extremes

State Highs State Lows

Community

WunderPhotos

Category 6

Welcome to Category 6. This is the collective home for Weather Underground's featured writeups by Dr. Jeff Masters (right), Bob Henson (left), Chris Burt, and other regular contributors.

Nearby

Air Quality

  Air Quality AQ Index Pollutant
Not available.

Snow Depth

Station Depth Elevation

Earthquake Activity

City Distance Mag. Time & Date
Minimum magnitude displayed is 2.5.

Coastal Water Temperatures

Place Temperature

Stations

Nearby Weather Stations

Station Location Temp. Windchill Dew Point Humidity Wind Precip. Elev Updated Type
                   

Watches & Warnings

There are currently no watches in effect.